地図

経路データ

SID SEASON NUMBER BASIN SUBBASIN NAME ISO_TIME NATURE LAT LON WMO_WIND WMO_PRES WMO_AGENCY TRACK_TYPE DIST2LAND LANDFALL IFLAG USA_AGENCY USA_ATCF_ID USA_LAT USA_LON USA_RECORD USA_STATUS USA_WIND USA_PRES USA_SSHS USA_R34_NE USA_R34_SE USA_R34_SW USA_R34_NW USA_R50_NE USA_R50_SE USA_R50_SW USA_R50_NW USA_R64_NE USA_R64_SE USA_R64_SW USA_R64_NW USA_POCI USA_ROCI USA_RMW USA_EYE TOKYO_LAT TOKYO_LON TOKYO_GRADE TOKYO_WIND TOKYO_PRES TOKYO_R50_DIR TOKYO_R50_LONG TOKYO_R50_SHORT TOKYO_R30_DIR TOKYO_R30_LONG TOKYO_R30_SHORT TOKYO_LAND CMA_LAT CMA_LON CMA_CAT CMA_WIND CMA_PRES HKO_LAT HKO_LON HKO_CAT HKO_WIND HKO_PRES NEWDELHI_LAT NEWDELHI_LON NEWDELHI_GRADE NEWDELHI_WIND NEWDELHI_PRES NEWDELHI_CI NEWDELHI_DP NEWDELHI_POCI REUNION_LAT REUNION_LON REUNION_TYPE REUNION_WIND REUNION_PRES REUNION_TNUM REUNION_CI REUNION_RMW REUNION_R34_NE REUNION_R34_SE REUNION_R34_SW REUNION_R34_NW REUNION_R50_NE REUNION_R50_SE REUNION_R50_SW REUNION_R50_NW REUNION_R64_NE REUNION_R64_SE REUNION_R64_SW REUNION_R64_NW BOM_LAT BOM_LON BOM_TYPE BOM_WIND BOM_PRES BOM_TNUM BOM_CI BOM_RMW BOM_R34_NE BOM_R34_SE BOM_R34_SW BOM_R34_NW BOM_R50_NE BOM_R50_SE BOM_R50_SW BOM_R50_NW BOM_R64_NE BOM_R64_SE BOM_R64_SW BOM_R64_NW BOM_ROCI BOM_POCI BOM_EYE BOM_POS_METHOD BOM_PRES_METHOD NADI_LAT NADI_LON NADI_CAT NADI_WIND NADI_PRES WELLINGTON_LAT WELLINGTON_LON WELLINGTON_WIND WELLINGTON_PRES DS824_LAT DS824_LON DS824_STAGE DS824_WIND DS824_PRES TD9636_LAT TD9636_LON TD9636_STAGE TD9636_WIND TD9636_PRES TD9635_LAT TD9635_LON TD9635_WIND TD9635_PRES TD9635_ROCI NEUMANN_LAT NEUMANN_LON NEUMANN_CLASS NEUMANN_WIND NEUMANN_PRES MLC_LAT MLC_LON MLC_CLASS MLC_WIND MLC_PRES USA_GUST BOM_GUST BOM_GUST_PER REUNION_GUST REUNION_GUST_PER USA_SEAHGT USA_SEARAD_NE USA_SEARAD_SE USA_SEARAD_SW USA_SEARAD_NW STORM_SPEED STORM_DIR
1970192N30158 1970 62 WP MM NOT_NAMED 1970-07-10 12:00:00 TS 30.0000 158.000 main 1713 1713 __O___________ -1 30.0000 158.000 0 1010 11 128
1970192N30158 1970 62 WP MM NOT_NAMED 1970-07-10 15:00:00 TS 29.6653 158.499 main 1771 1771 __P___________ -1 29.6653 158.499 0 1010 10 120
1970192N30158 1970 62 WP MM NOT_NAMED 1970-07-10 18:00:00 TS 29.5000 159.000 main 1824 1824 __O___________ -1 29.5000 159.000 0 1010 9 92
1970192N30158 1970 62 WP MM NOT_NAMED 1970-07-10 21:00:00 TS 29.6299 159.507 main 1862 1862 __P___________ -1 29.6299 159.507 0 1009 10 60
1970192N30158 1970 62 WP MM NOT_NAMED 1970-07-11 00:00:00 TS 30.0000 160.000 main 1887 1887 __O___________ -1 30.0000 160.000 0 1008 12 44
1970192N30158 1970 62 WP MM NOT_NAMED 1970-07-11 03:00:00 TS 30.5125 160.479 main 1908 1881 __P___________ -1 30.5125 160.479 0 1008 13 35
1970192N30158 1970 62 WP MM NOT_NAMED 1970-07-11 06:00:00 TS 31.1000 160.900 main 1881 1845 __O___________ -1 31.1000 160.900 0 19 1008 13 30
1970192N30158 1970 62 WP MM NOT_NAMED 1970-07-11 09:00:00 TS 31.6147 161.216 main 1845 1811 __P___________ -1 31.6147 161.216 0 19 1008 11 27
1970192N30158 1970 62 WP MM NOT_NAMED 1970-07-11 12:00:00 TS 32.1000 161.500 main 1811 1782 __O___________ -1 32.1000 161.500 0 19 1008 11 27
1970192N30158 1970 62 WP MM NOT_NAMED 1970-07-11 15:00:00 TS 32.5645 161.798 main 1778 1755 __P___________ -1 32.5645 161.798 0 19 1007 11 33
1970192N30158 1970 62 WP MM NOT_NAMED 1970-07-11 18:00:00 TS 33.0000 162.200 main 1761 1752 __O___________ -1 33.0000 162.200 0 19 1006 12 46
1970192N30158 1970 62 WP MM NOT_NAMED 1970-07-11 21:00:00 TS 33.3775 162.791 main 1755 1752 __P___________ -1 33.3775 162.791 0 24 1006 13 54
1970192N30158 1970 62 WP MM NOT_NAMED 1970-07-12 00:00:00 TS 33.8000 163.500 main 1756 1750 __O___________ -1 33.8000 163.500 1 29 1006 15 53
1970192N30158 1970 62 WP MM NOT_NAMED 1970-07-12 03:00:00 TS 34.3180 164.273 main 1756 1736 __P___________ -1 34.3180 164.273 1 29 1006 17 46
1970192N30158 1970 62 WP MM NOT_NAMED 1970-07-12 06:00:00 TS 35.0000 165.000 main 1736 1692 __O___________ -1 35.0000 165.000 1 29 1006 19 34
1970192N30158 1970 62 WP MM NOT_NAMED 1970-07-12 09:00:00 TS 35.9121 165.575 main 1698 1653 __P___________ -1 35.9121 165.575 1 33 1006 21 23
1970192N30158 1970 62 WP MM NOT_NAMED 1970-07-12 12:00:00 ET 36.9000 166.000 main 1645 1605 __O___________ -1 36.9000 166.000 9 38 1006 20 17
1970192N30158 1970 62 WP MM NOT_NAMED 1970-07-12 15:00:00 ET 37.7871 166.289 main 1598 1534 __P___________ -1 37.7871 166.289 9 33 1006 17 13
1970192N30158 1970 62 WP MM NOT_NAMED 1970-07-12 18:00:00 ET 38.6000 166.500 main 1534 1476 __O___________ -1 38.6000 166.500 9 29 1006 16 14
1970192N30158 1970 62 WP MM NOT_NAMED 1970-07-12 21:00:00 ET 39.3075 166.758 main 1480 1424 __P___________ -1 39.3075 166.758 9 26 1006 15 15
1970192N30158 1970 62 WP MM NOT_NAMED 1970-07-13 00:00:00 ET 40.0000 167.000 main 1424 1369 __O___________ -1 40.0000 167.000 9 23 1006 15 13
1970192N30158 1970 62 WP MM NOT_NAMED 1970-07-13 03:00:00 ET 40.7399 167.201 main 1369 1308 __P___________ -1 40.7399 167.201 9 23 1006 16 11
1970192N30158 1970 62 WP MM NOT_NAMED 1970-07-13 06:00:00 ET 41.6000 167.400 main 1300 1226 __O___________ -1 41.6000 167.400 9 23 1006 20 10
1970192N30158 1970 62 WP MM NOT_NAMED 1970-07-13 09:00:00 ET 42.6700 167.642 main 1218 1149 __P___________ -1 42.6700 167.642 9 21 1008 22 9
1970192N30158 1970 62 WP MM NOT_NAMED 1970-07-13 12:00:00 ET 43.8000 167.900 main 1140 1072 __O___________ -1 43.8000 167.900 9 19 1010 22 10
1970192N30158 1970 62 WP MM NOT_NAMED 1970-07-13 15:00:00 ET 44.7999 168.144 main 1064 1007 __P___________ -1 44.7999 168.144 9 1010 20 10
1970192N30158 1970 62 WP MM NOT_NAMED 1970-07-13 18:00:00 ET 45.8000 168.400 main 999 928 __O___________ -1 45.8000 168.400 9 1010 21 10
1970192N30158 1970 62 WP MM NOT_NAMED 1970-07-13 21:00:00 ET 46.8752 168.687 main 919 850 __P___________ -1 46.8752 168.687 9 1010 22 11
1970192N30158 1970 62 WP MM NOT_NAMED 1970-07-14 00:00:00 ET 48.0000 169.000 main 842 __O___________ -1 48.0000 169.000 9 1010 23 11

デジタル台風データ・検索

IBTrACS Databaseについて

本データベースは、米国NOAAが公開する1842年以降の世界の熱帯低気圧のベストトラックデータアーカイブInternational Best Track Archive for Climate Stewardship (IBTrACS)を、ウェブで閲覧しやすい形式に変換したものです。

最終更新日:2021-10-27